Time;durP1;ratioP1;P1;durP2;ratioP2;P2;SDS_P1;SDS_P2;PMS_P1;PMS_P2;Temp;Humidity;BMP_temperature;BMP_pressure;BME280_temperature;BME280_humidity;BME280_pressure;Samples;Min_cycle;Max_cycle;Signal;HPM_P1;HPM_P2
2021/11/24 00:01:34;;;;;;;38.60;26.90;;;12.90;99.90;;;;;;5013258;28;20454;-48
2021/11/24 00:04:01;;;;;;;31.53;25.13;;;12.80;99.90;;;;;;5013208;28;20947;-51
2021/11/24 00:06:28;;;;;;;30.50;23.50;;;12.70;99.90;;;;;;5013223;28;20450;-48
2021/11/24 00:08:56;;;;;;;27.93;21.87;;;12.90;99.90;;;;;;5013336;28;20825;-48
2021/11/24 00:11:23;;;;;;;33.30;24.70;;;12.90;99.90;;;;;;5013407;28;20441;-46
2021/11/24 00:13:50;;;;;;;29.37;25.10;;;12.70;99.90;;;;;;5012884;28;20456;-46
2021/11/24 00:16:17;;;;;;;25.03;22.37;;;12.80;99.90;;;;;;5013119;28;20454;-47
2021/11/24 00:18:44;;;;;;;30.80;22.70;;;12.80;99.90;;;;;;5012757;28;20472;-49
2021/11/24 00:21:10;;;;;;;25.43;22.10;;;12.80;99.90;;;;;;5013053;28;20457;-48
2021/11/24 00:23:37;;;;;;;27.63;22.77;;;12.60;99.90;;;;;;5012876;28;20522;-49
2021/11/24 00:26:05;;;;;;;27.07;22.83;;;12.70;99.90;;;;;;5012747;28;20490;-46
2021/11/24 00:28:32;;;;;;;31.17;24.57;;;12.70;99.90;;;;;;5012936;28;20458;-48
2021/11/24 00:30:59;;;;;;;34.07;23.40;;;12.70;99.90;;;;;;5012647;28;20811;-46
2021/11/24 00:33:27;;;;;;;25.80;22.70;;;12.70;99.90;;;;;;5012419;28;20453;-46
2021/11/24 00:35:54;;;;;;;30.13;24.53;;;12.70;99.90;;;;;;5012826;28;20450;-46
2021/11/24 00:38:21;;;;;;;27.23;23.30;;;12.70;99.90;;;;;;5012606;28;20478;-46
2021/11/24 00:40:48;;;;;;;25.63;23.03;;;12.70;99.90;;;;;;5012686;28;20454;-49
2021/11/24 00:43:16;;;;;;;34.57;23.80;;;12.60;99.90;;;;;;5012197;28;20815;-47
2021/11/24 00:45:43;;;;;;;26.87;24.03;;;12.60;99.90;;;;;;5012553;28;20482;-46
2021/11/24 00:48:10;;;;;;;28.00;24.67;;;12.60;99.90;;;;;;5012982;28;21004;-48
2021/11/24 00:50:37;;;;;;;31.60;24.00;;;12.60;99.90;;;;;;5012573;28;20469;-47
2021/11/24 00:53:04;;;;;;;29.47;24.57;;;12.50;99.90;;;;;;5012275;28;20450;-48
2021/11/24 00:55:31;;;;;;;34.83;25.33;;;12.40;99.90;;;;;;5012228;28;20450;-47
2021/11/24 00:57:57;;;;;;;30.43;25.30;;;12.50;99.90;;;;;;5012410;28;20472;-50
2021/11/24 01:00:26;;;;;;;29.80;23.37;;;12.50;99.90;;;;;;5012293;28;20450;-47
2021/11/24 01:02:52;;;;;;;24.53;22.10;;;12.50;99.90;;;;;;5012255;28;20805;-47
2021/11/24 01:05:19;;;;;;;26.80;22.53;;;12.50;99.90;;;;;;5012331;28;20486;-49
2021/11/24 01:07:46;;;;;;;26.80;24.00;;;12.60;99.90;;;;;;5011891;28;20985;-48
2021/11/24 01:10:14;;;;;;;25.83;23.03;;;12.60;99.90;;;;;;5012287;28;20505;-47
2021/11/24 01:12:42;;;;;;;26.60;24.20;;;12.50;99.90;;;;;;5012143;28;20437;-47
2021/11/24 01:15:10;;;;;;;30.93;23.00;;;12.40;99.90;;;;;;5012138;28;20950;-48
2021/11/24 01:17:38;;;;;;;24.53;22.20;;;12.40;99.90;;;;;;5012299;28;20489;-48
2021/11/24 01:20:06;;;;;;;25.27;22.67;;;12.40;99.90;;;;;;5011760;28;20450;-51
2021/11/24 01:22:33;;;;;;;24.27;21.90;;;12.50;99.90;;;;;;5012061;28;20442;-48
2021/11/24 01:25:00;;;;;;;26.67;22.10;;;12.50;99.90;;;;;;5011934;28;20482;-49
2021/11/24 01:27:27;;;;;;;26.73;23.90;;;12.40;99.90;;;;;;5011815;28;20446;-50
2021/11/24 01:29:53;;;;;;;27.00;20.60;;;12.40;99.90;;;;;;5012066;28;20446;-48
2021/11/24 01:32:20;;;;;;;23.20;20.87;;;12.50;99.90;;;;;;5011584;28;20446;-50
2021/11/24 01:34:48;;;;;;;22.97;20.67;;;12.50;99.90;;;;;;5012024;28;20540;-52
2021/11/24 01:37:15;;;;;;;26.10;21.80;;;12.50;99.90;;;;;;5011832;28;20453;-50
2021/11/24 01:39:42;;;;;;;23.90;21.50;;;12.50;99.90;;;;;;5011878;28;20452;-52
2021/11/24 01:42:10;;;;;;;25.13;22.47;;;12.50;99.90;;;;;;5011598;28;20453;-50
2021/11/24 01:44:37;;;;;;;24.10;21.77;;;12.50;99.90;;;;;;5011384;28;20450;-49
2021/11/24 01:47:05;;;;;;;25.80;23.07;;;12.40;99.90;;;;;;5011753;28;20449;-52
2021/11/24 01:49:33;;;;;;;26.77;23.47;;;12.40;99.90;;;;;;5012439;28;20483;-50
2021/11/24 01:52:01;;;;;;;23.87;21.63;;;12.40;99.90;;;;;;5015685;28;20454;-48
2021/11/24 01:54:30;;;;;;;25.83;22.07;;;12.40;99.90;;;;;;5015759;28;20481;-47
2021/11/24 01:56:57;;;;;;;21.30;19.57;;;12.40;99.90;;;;;;5015399;28;20845;-48
2021/11/24 01:59:24;;;;;;;22.93;20.93;;;12.40;99.90;;;;;;5015581;28;20480;-51
2021/11/24 02:01:51;;;;;;;23.70;20.77;;;12.30;99.90;;;;;;5015521;28;20464;-51
2021/11/24 02:04:19;;;;;;;24.27;21.83;;;12.40;99.90;;;;;;5015644;28;20457;-49
2021/11/24 02:06:46;;;;;;;24.40;22.10;;;12.50;99.90;;;;;;5015582;28;20485;-52
2021/11/24 02:09:14;;;;;;;21.83;19.90;;;12.40;99.90;;;;;;5015206;28;20469;-48
2021/11/24 02:11:43;;;;;;;23.27;20.73;;;12.50;99.90;;;;;;5015477;28;20621;-48
2021/11/24 02:14:11;;;;;;;23.60;21.40;;;12.40;99.90;;;;;;5015437;28;20442;-49
2021/11/24 02:16:41;;;;;;;25.97;20.93;;;12.50;99.90;;;;;;5015538;28;20442;-48
2021/11/24 02:19:08;;;;;;;26.10;23.67;;;12.30;99.90;;;;;;5015732;28;20832;-47
2021/11/24 02:21:37;;;;;;;22.30;20.60;;;12.40;99.90;;;;;;5014832;28;20449;-48
2021/11/24 02:24:04;;;;;;;21.27;19.33;;;12.50;99.90;;;;;;5015331;28;20458;-50
2021/11/24 02:26:31;;;;;;;23.43;21.23;;;12.40;99.90;;;;;;5015192;28;20997;-47
2021/11/24 02:28:57;;;;;;;20.37;18.67;;;12.20;99.90;;;;;;5015213;28;20971;-48
2021/11/24 02:31:27;;;;;;;21.73;19.93;;;12.40;99.90;;;;;;5014859;28;20829;-48
2021/11/24 02:33:56;;;;;;;22.37;20.33;;;12.30;99.90;;;;;;4995856;28;20442;-48
2021/11/24 02:36:24;;;;;;;22.70;19.83;;;12.20;99.90;;;;;;4995298;28;20446;-49
2021/11/24 02:38:52;;;;;;;21.37;19.43;;;12.20;99.90;;;;;;4995205;28;20477;-47
2021/11/24 02:41:19;;;;;;;21.23;19.53;;;12.20;99.90;;;;;;5008233;28;20450;-48
2021/11/24 02:43:46;;;;;;;20.37;18.50;;;12.20;99.90;;;;;;5014676;28;20450;-49
2021/11/24 02:46:13;;;;;;;18.57;17.07;;;12.30;99.90;;;;;;5014738;28;20477;-49
2021/11/24 02:48:41;;;;;;;21.60;19.30;;;12.30;99.90;;;;;;5014641;28;20473;-49
2021/11/24 02:51:08;;;;;;;22.13;20.30;;;12.30;99.90;;;;;;5014580;28;20450;-48
2021/11/24 02:53:36;;;;;;;25.87;20.57;;;12.30;99.90;;;;;;5014648;28;20442;-48
2021/11/24 02:56:05;;;;;;;22.00;20.40;;;12.20;99.90;;;;;;5014680;28;20939;-49
2021/11/24 02:58:32;;;;;;;22.93;21.03;;;12.20;99.90;;;;;;5014567;28;20470;-47
2021/11/24 03:01:00;;;;;;;20.37;18.50;;;12.20;99.90;;;;;;5013461;28;20446;-50
2021/11/24 03:03:27;;;;;;;20.60;18.57;;;12.30;99.90;;;;;;5013687;28;20461;-49
2021/11/24 03:05:54;;;;;;;23.97;21.60;;;12.40;99.90;;;;;;5014244;28;20481;-48
2021/11/24 03:08:21;;;;;;;20.40;18.77;;;12.40;99.90;;;;;;5014318;28;20474;-49
2021/11/24 03:10:48;;;;;;;23.03;20.63;;;12.30;99.90;;;;;;5014430;28;20960;-48
2021/11/24 03:13:16;;;;;;;20.67;18.90;;;12.30;99.90;;;;;;5013927;28;20948;-48
2021/11/24 03:15:42;;;;;;;21.90;20.00;;;12.40;99.90;;;;;;5014252;28;20446;-48
2021/11/24 03:18:09;;;;;;;21.57;19.67;;;12.30;99.90;;;;;;5014120;28;20809;-49
2021/11/24 03:20:36;;;;;;;22.20;20.20;;;12.20;99.90;;;;;;5014253;28;20453;-47
2021/11/24 03:23:03;;;;;;;21.33;19.13;;;12.20;99.90;;;;;;5013738;28;20951;-51
2021/11/24 03:25:30;;;;;;;19.57;17.87;;;12.20;99.90;;;;;;5014054;28;20888;-49
2021/11/24 03:27:57;;;;;;;22.60;20.40;;;12.20;99.90;;;;;;5013883;28;20469;-47
2021/11/24 03:30:27;;;;;;;23.20;21.00;;;12.20;99.90;;;;;;5013815;28;20465;-48
2021/11/24 03:32:54;;;;;;;23.33;21.07;;;12.10;99.90;;;;;;5013816;28;20450;-51
2021/11/24 03:35:22;;;;;;;24.83;22.40;;;12.20;99.90;;;;;;5013756;28;20776;-47
2021/11/24 03:37:51;;;;;;;22.20;20.10;;;12.10;99.90;;;;;;5013740;28;20466;-47
2021/11/24 03:40:20;;;;;;;20.97;19.30;;;12.10;99.90;;;;;;5013602;28;20446;-47
2021/11/24 03:42:47;;;;;;;22.03;20.17;;;12.10;99.90;;;;;;5013588;28;20943;-48
2021/11/24 03:45:15;;;;;;;21.87;20.10;;;12.10;99.90;;;;;;5013628;28;20468;-47
2021/11/24 03:47:44;;;;;;;21.13;19.43;;;12.20;99.90;;;;;;5013550;28;20481;-47
2021/11/24 03:50:12;;;;;;;22.13;20.17;;;12.20;99.90;;;;;;5013391;28;20476;-48
2021/11/24 03:52:39;;;;;;;19.43;17.83;;;12.10;99.90;;;;;;5013385;28;20452;-49
2021/11/24 03:55:08;;;;;;;20.33;18.80;;;12.10;99.90;;;;;;5013547;28;20544;-48
2021/11/24 03:57:34;;;;;;;21.17;18.77;;;12.20;99.90;;;;;;5013447;28;20818;-47
2021/11/24 04:00:01;;;;;;;19.23;17.67;;;12.20;99.90;;;;;;5013489;28;20452;-48
2021/11/24 04:02:28;;;;;;;21.57;19.73;;;12.10;99.90;;;;;;5013115;28;20952;-51
2021/11/24 04:04:56;;;;;;;21.17;19.17;;;12.00;99.90;;;;;;5013548;28;20456;-47
2021/11/24 04:07:23;;;;;;;21.80;19.90;;;12.10;99.90;;;;;;5013299;28;20544;-47
2021/11/24 04:09:50;;;;;;;20.83;19.03;;;12.20;99.90;;;;;;5013195;28;20452;-47
2021/11/24 04:12:17;;;;;;;20.87;19.13;;;12.30;99.90;;;;;;5012277;28;20465;-48
2021/11/24 04:14:43;;;;;;;21.33;19.30;;;12.40;99.90;;;;;;5013144;28;20450;-49
2021/11/24 04:17:10;;;;;;;21.67;19.67;;;12.50;99.90;;;;;;5013183;28;20893;-48
2021/11/24 04:19:37;;;;;;;20.90;19.20;;;12.30;99.90;;;;;;5012985;28;20466;-48
2021/11/24 04:22:06;;;;;;;20.10;18.20;;;12.20;99.90;;;;;;5012900;28;20477;-47
2021/11/24 04:24:33;;;;;;;21.17;19.37;;;12.40;99.90;;;;;;5012681;28;20500;-47
2021/11/24 04:27:01;;;;;;;20.90;19.00;;;12.20;99.90;;;;;;5012607;28;20818;-47
2021/11/24 04:29:28;;;;;;;22.50;20.67;;;12.20;99.90;;;;;;5012933;28;20474;-48
2021/11/24 04:31:55;;;;;;;25.83;23.33;;;12.30;99.90;;;;;;5012734;28;20529;-51
2021/11/24 04:34:22;;;;;;;23.07;20.83;;;12.20;99.90;;;;;;5012761;28;20540;-49
2021/11/24 04:36:49;;;;;;;22.00;20.10;;;12.30;99.90;;;;;;5012641;28;21022;-48
2021/11/24 04:39:17;;;;;;;21.13;19.40;;;12.20;99.90;;;;;;5012646;28;20830;-48
2021/11/24 04:41:44;;;;;;;22.83;20.93;;;12.20;99.90;;;;;;5012575;28;20837;-49
2021/11/24 04:44:11;;;;;;;22.90;20.87;;;12.10;99.90;;;;;;5012739;28;20442;-47
2021/11/24 04:46:38;;;;;;;24.93;22.47;;;12.10;99.90;;;;;;5012633;28;20486;-48
2021/11/24 04:49:05;;;;;;;27.20;24.30;;;12.10;99.90;;;;;;5012100;28;20477;-47
2021/11/24 04:51:31;;;;;;;25.67;23.40;;;12.10;99.90;;;;;;5012448;28;20472;-50
2021/11/24 04:53:58;;;;;;;27.80;24.10;;;12.10;99.90;;;;;;5012428;28;20446;-51
2021/11/24 04:56:26;;;;;;;26.93;21.93;;;12.00;99.90;;;;;;5012407;28;20441;-52
2021/11/24 04:58:55;;;;;;;26.20;22.90;;;12.10;99.90;;;;;;5012336;28;20468;-47
2021/11/24 05:01:23;;;;;;;26.80;23.33;;;12.10;99.90;;;;;;5012096;28;20457;-49
2021/11/24 05:03:50;;;;;;;27.23;24.60;;;12.10;99.90;;;;;;5012245;28;20815;-49
2021/11/24 05:06:19;;;;;;;27.37;22.53;;;12.10;99.90;;;;;;5012401;28;20486;-48
2021/11/24 05:08:46;;;;;;;28.40;22.13;;;12.10;99.90;;;;;;5012497;28;20465;-49
2021/11/24 05:11:15;;;;;;;25.10;22.57;;;12.10;99.90;;;;;;5012145;28;20454;-50
2021/11/24 05:13:48;;;;;;;22.63;20.63;;;12.10;99.90;;;;;;4992397;28;20795;-47
2021/11/24 05:16:15;;;;;;;24.80;22.50;;;12.10;99.90;;;;;;4992605;28;20447;-47
2021/11/24 05:18:43;;;;;;;25.90;23.23;;;12.00;99.90;;;;;;4992506;28;20513;-54
2021/11/24 05:21:13;;;;;;;23.77;21.67;;;12.00;99.90;;;;;;4992381;28;20455;-51
2021/11/24 05:23:42;;;;;;;25.40;22.90;;;12.20;99.90;;;;;;4993174;28;20509;-49
2021/11/24 05:26:10;;;;;;;24.60;22.43;;;12.10;99.90;;;;;;5011344;28;20987;-49
2021/11/24 05:28:36;;;;;;;23.50;21.43;;;12.10;99.90;;;;;;5012099;28;20473;-48
2021/11/24 05:31:05;;;;;;;29.57;26.77;;;12.00;99.90;;;;;;5011989;28;21019;-47
2021/11/24 05:33:32;;;;;;;25.13;22.90;;;12.00;99.90;;;;;;5011741;28;20446;-48
2021/11/24 05:35:59;;;;;;;26.87;24.13;;;12.00;99.90;;;;;;5011595;28;20450;-47
2021/11/24 05:38:26;;;;;;;24.80;22.30;;;11.90;99.90;;;;;;5011793;28;20485;-48
2021/11/24 05:40:53;;;;;;;25.70;23.17;;;11.90;99.90;;;;;;5011860;28;20477;-48
2021/11/24 05:43:22;;;;;;;25.87;23.07;;;12.00;99.90;;;;;;5011621;28;20449;-47
2021/11/24 05:46:09;;;;;;;22.03;20.33;;;12.10;99.90;;;;;;5011513;28;20484;-47
2021/11/24 05:48:39;;;;;;;25.10;22.70;;;11.90;99.90;;;;;;5011764;28;20555;-48
2021/11/24 05:51:06;;;;;;;25.03;22.90;;;11.90;99.90;;;;;;5011743;28;20456;-48
2021/11/24 05:53:33;;;;;;;27.03;24.27;;;12.40;99.90;;;;;;5011478;28;20800;-48
2021/11/24 05:56:00;;;;;;;27.90;25.30;;;12.70;99.90;;;;;;5011278;28;20446;-48
2021/11/24 05:58:27;;;;;;;27.03;24.13;;;13.20;99.90;;;;;;5011554;28;20518;-50
2021/11/24 06:00:54;;;;;;;28.57;25.17;;;13.70;99.90;;;;;;5012007;28;21019;-51
2021/11/24 06:03:22;;;;;;;17.37;16.43;;;14.00;99.90;;;;;;5011495;28;20446;-48
2021/11/24 06:05:50;;;;;;;17.10;16.20;;;17.20;99.90;;;;;;5011525;28;20444;-48
2021/11/24 06:08:17;;;;;;;17.13;16.27;;;19.30;93.20;;;;;;5010843;28;20489;-48
2021/11/24 06:10:45;;;;;;;18.30;17.40;;;20.20;86.60;;;;;;5011503;28;20454;-48
2021/11/24 06:13:12;;;;;;;17.33;16.50;;;20.70;80.80;;;;;;5011194;28;20475;-50
2021/11/24 06:15:39;;;;;;;18.00;17.00;;;21.00;76.80;;;;;;5011437;28;20537;-49
2021/11/24 06:18:06;;;;;;;17.90;16.80;;;21.10;73.90;;;;;;5011097;28;20968;-48
2021/11/24 06:20:33;;;;;;;18.10;17.20;;;21.30;71.90;;;;;;5011175;28;20457;-49
2021/11/24 06:23:02;;;;;;;17.93;17.03;;;21.30;70.40;;;;;;5010994;28;20961;-50
2021/11/24 06:25:28;;;;;;;17.50;16.70;;;21.40;69.50;;;;;;5011266;28;20931;-48
2021/11/24 06:27:55;;;;;;;17.10;16.20;;;21.30;68.80;;;;;;5011187;28;20496;-48
2021/11/24 06:30:24;;;;;;;17.77;16.93;;;21.40;68.20;;;;;;5010863;28;20450;-51
2021/11/24 06:32:50;;;;;;;17.27;16.47;;;21.30;67.70;;;;;;5010994;28;20974;-49
2021/11/24 06:35:17;;;;;;;17.63;16.83;;;21.30;67.60;;;;;;5011705;28;20855;-48
2021/11/24 06:37:45;;;;;;;18.70;17.70;;;21.30;67.40;;;;;;5014662;28;20476;-48
2021/11/24 06:40:14;;;;;;;17.40;16.40;;;21.30;67.10;;;;;;5014825;28;20452;-48
2021/11/24 06:42:41;;;;;;;18.80;17.90;;;21.20;66.80;;;;;;5014311;28;20457;-49
2021/11/24 06:45:09;;;;;;;17.30;16.50;;;21.20;67.00;;;;;;5014809;28;20450;-48
2021/11/24 06:47:36;;;;;;;15.63;14.93;;;21.10;66.90;;;;;;5014434;28;20499;-50
2021/11/24 06:50:03;;;;;;;16.57;15.70;;;21.00;67.00;;;;;;5014936;28;20572;-50
2021/11/24 06:52:30;;;;;;;14.80;14.10;;;21.00;67.10;;;;;;5014457;28;20452;-48
2021/11/24 06:54:57;;;;;;;15.00;14.30;;;20.90;67.00;;;;;;5014630;28;20456;-48
2021/11/24 06:57:25;;;;;;;16.23;14.97;;;20.90;67.10;;;;;;5014465;28;20442;-49
2021/11/24 06:59:52;;;;;;;14.50;13.70;;;20.80;67.20;;;;;;5014347;28;20451;-49
2021/11/24 07:02:19;;;;;;;16.13;15.10;;;20.80;67.30;;;;;;4994875;28;20443;-49
2021/11/24 07:04:46;;;;;;;14.60;13.90;;;20.70;67.20;;;;;;4994792;28;20450;-50
2021/11/24 07:07:12;;;;;;;15.20;14.50;;;20.70;67.30;;;;;;4994557;28;20478;-49
2021/11/24 07:09:40;;;;;;;14.83;14.23;;;20.70;67.10;;;;;;4994849;28;20810;-49
2021/11/24 07:12:08;;;;;;;14.87;14.27;;;20.70;67.30;;;;;;4997548;28;20836;-50
2021/11/24 07:14:37;;;;;;;15.30;14.60;;;20.60;67.20;;;;;;5014219;28;20448;-49
2021/11/24 07:17:04;;;;;;;15.13;14.47;;;20.50;67.30;;;;;;5014296;28;20820;-53
2021/11/24 07:19:31;;;;;;;15.33;14.63;;;20.60;67.50;;;;;;5014149;28;20476;-48
2021/11/24 07:21:58;;;;;;;15.77;14.90;;;20.50;67.50;;;;;;5013859;28;21034;-49
2021/11/24 07:24:25;;;;;;;15.13;14.53;;;20.40;67.70;;;;;;5013801;28;20446;-51
2021/11/24 07:26:51;;;;;;;15.10;14.40;;;20.40;68.60;;;;;;5013735;28;20484;-52
2021/11/24 07:29:20;;;;;;;13.77;13.17;;;20.40;67.80;;;;;;5014006;28;20466;-51
2021/11/24 07:31:48;;;;;;;13.40;12.77;;;20.30;67.90;;;;;;5013493;28;20461;-49
2021/11/24 07:34:15;;;;;;;13.70;13.00;;;20.30;67.90;;;;;;5004106;28;20450;-52
2021/11/24 07:36:43;;;;;;;15.00;14.20;;;20.30;68.50;;;;;;5004165;28;20449;-53
2021/11/24 07:39:10;;;;;;;13.10;12.60;;;20.20;68.70;;;;;;5003632;28;20924;-51
2021/11/24 07:41:37;;;;;;;13.90;13.20;;;20.20;69.20;;;;;;5002192;28;20453;-52
2021/11/24 07:44:04;;;;;;;13.57;12.97;;;20.20;69.40;;;;;;5002270;28;20457;-50
2021/11/24 07:46:31;;;;;;;14.67;13.87;;;20.20;69.60;;;;;;5001781;28;20454;-50
2021/11/24 07:48:59;;;;;;;14.73;14.10;;;20.20;70.10;;;;;;5000940;28;20565;-50
2021/11/24 07:51:27;;;;;;;13.40;12.80;;;20.10;70.30;;;;;;5001820;28;20446;-51
2021/11/24 07:53:54;;;;;;;15.80;15.20;;;20.10;70.60;;;;;;5001537;28;20454;-50
2021/11/24 07:56:23;;;;;;;14.90;14.10;;;20.10;70.80;;;;;;5002025;28;20454;-48
2021/11/24 07:58:50;;;;;;;15.20;14.50;;;20.10;71.10;;;;;;5001674;28;20843;-50
2021/11/24 08:01:17;;;;;;;13.23;12.73;;;20.10;71.50;;;;;;5001890;28;20484;-47
2021/11/24 08:03:44;;;;;;;14.47;13.87;;;20.00;71.60;;;;;;5001527;28;20457;-50
2021/11/24 08:06:12;;;;;;;14.93;14.33;;;20.00;72.10;;;;;;5001937;28;20801;-51
2021/11/24 08:08:39;;;;;;;14.37;13.87;;;20.00;72.40;;;;;;5001477;28;20497;-49
2021/11/24 08:11:06;;;;;;;15.07;14.47;;;19.90;72.90;;;;;;5001248;28;20449;-49
2021/11/24 08:13:33;;;;;;;15.00;14.40;;;19.80;73.40;;;;;;5002132;28;20544;-53
2021/11/24 08:15:59;;;;;;;15.20;14.60;;;19.80;73.70;;;;;;5004111;28;20449;-52
2021/11/24 08:18:26;;;;;;;15.17;14.57;;;19.80;73.90;;;;;;5001849;28;20477;-53
2021/11/24 08:20:53;;;;;;;16.40;15.50;;;19.80;73.90;;;;;;5001300;28;20788;-50
2021/11/24 08:23:21;;;;;;;16.63;15.73;;;19.80;73.50;;;;;;5000761;28;20446;-51
2021/11/24 08:25:48;;;;;;;15.53;14.70;;;19.70;71.90;;;;;;4982071;28;20936;-49
2021/11/24 08:28:16;;;;;;;16.40;15.43;;;19.60;71.90;;;;;;4981676;28;20499;-49
2021/11/24 08:30:43;;;;;;;16.23;15.33;;;19.60;72.40;;;;;;4981566;28;20485;-51
2021/11/24 08:33:10;;;;;;;15.13;14.27;;;19.60;73.10;;;;;;4981615;28;20530;-52
2021/11/24 08:35:37;;;;;;;16.07;15.37;;;19.50;73.80;;;;;;4985629;28;20450;-50
2021/11/24 08:38:04;;;;;;;15.10;14.40;;;19.50;74.50;;;;;;5002062;28;20508;-52
2021/11/24 08:40:32;;;;;;;15.33;14.73;;;19.50;75.60;;;;;;5003623;28;20956;-52
2021/11/24 08:42:59;;;;;;;14.97;14.27;;;19.50;75.20;;;;;;5003606;28;20460;-52
2021/11/24 08:45:26;;;;;;;15.50;14.50;;;19.50;75.70;;;;;;5004272;28;21300;-52
2021/11/24 08:47:53;;;;;;;16.47;15.67;;;19.40;75.90;;;;;;5004409;28;20581;-52
2021/11/24 08:50:21;;;;;;;15.70;15.00;;;19.40;76.30;;;;;;5003857;28;20572;-50
2021/11/24 08:52:48;;;;;;;16.73;15.93;;;19.40;76.60;;;;;;5004173;28;20657;-54
2021/11/24 08:55:16;;;;;;;16.30;15.53;;;19.30;77.00;;;;;;5002199;28;20458;-51
2021/11/24 08:57:46;;;;;;;16.30;15.50;;;19.30;77.60;;;;;;5003026;28;20549;-50
2021/11/24 09:00:16;;;;;;;16.03;15.00;;;19.20;78.30;;;;;;5003373;28;20452;-50
2021/11/24 09:02:43;;;;;;;15.70;15.00;;;19.20;78.90;;;;;;5002930;28;20456;-49
2021/11/24 09:05:10;;;;;;;16.60;15.80;;;19.10;79.60;;;;;;5001761;28;20450;-52
2021/11/24 09:07:37;;;;;;;16.63;15.53;;;19.10;80.00;;;;;;5002056;28;20850;-49
2021/11/24 09:10:06;;;;;;;14.67;14.07;;;19.10;80.30;;;;;;4995327;28;20455;-50
2021/11/24 09:12:33;;;;;;;14.90;14.20;;;19.20;81.30;;;;;;5000634;28;20465;-53
2021/11/24 09:15:01;;;;;;;15.33;14.67;;;19.10;81.00;;;;;;5001310;28;20450;-60
2021/11/24 09:17:28;;;;;;;15.70;15.07;;;19.20;81.80;;;;;;5001651;28;21076;-50
2021/11/24 09:19:55;;;;;;;15.40;14.80;;;19.30;83.20;;;;;;5000334;28;20454;-58
2021/11/24 09:22:22;;;;;;;15.43;14.73;;;19.30;82.70;;;;;;5000195;28;20771;-56
2021/11/24 09:24:53;;;;;;;15.07;14.43;;;19.30;85.10;;;;;;5000424;28;20774;-49
2021/11/24 09:27:29;;;;;;;15.10;14.50;;;19.40;90.30;;;;;;5000275;28;20512;-56
2021/11/24 09:29:56;;;;;;;15.43;14.73;;;19.50;89.80;;;;;;5000442;28;20530;-49
2021/11/24 09:32:24;;;;;;;14.87;14.27;;;19.50;85.60;;;;;;4999960;28;21113;-51
2021/11/24 09:34:51;;;;;;;15.70;15.10;;;19.40;84.20;;;;;;5000105;28;20461;-49
2021/11/24 09:37:18;;;;;;;14.97;14.27;;;19.40;84.80;;;;;;4999990;28;20820;-49
2021/11/24 09:39:45;;;;;;;15.93;14.93;;;19.30;84.60;;;;;;5000141;28;20992;-49
2021/11/24 09:42:15;;;;;;;14.97;14.27;;;19.30;85.00;;;;;;4999987;28;20457;-49
2021/11/24 09:44:46;;;;;;;14.80;14.20;;;19.40;84.80;;;;;;5000377;28;20825;-52
2021/11/24 09:47:13;;;;;;;14.30;13.70;;;19.40;84.70;;;;;;4999975;28;20460;-51
2021/11/24 09:49:45;;;;;;;15.73;14.93;;;19.40;84.80;;;;;;4999941;28;20488;-49
2021/11/24 09:52:13;;;;;;;15.50;14.70;;;19.30;84.60;;;;;;4999937;28;21003;-48
2021/11/24 09:54:41;;;;;;;14.97;14.37;;;19.40;84.70;;;;;;4999977;28;20455;-50
2021/11/24 09:57:09;;;;;;;14.43;13.83;;;19.40;84.60;;;;;;4999915;28;20469;-50
2021/11/24 09:59:35;;;;;;;15.87;15.13;;;19.40;84.30;;;;;;4999970;28;20465;-50
2021/11/24 10:02:02;;;;;;;13.43;12.85;;;19.40;84.50;;;;;;4998943;28;20493;-49
2021/11/24 10:04:30;;;;;;;14.63;14.03;;;19.40;83.90;;;;;;5000056;28;20199;-50
2021/11/24 10:06:59;;;;;;;14.80;14.20;;;19.40;83.30;;;;;;5001035;28;20454;-48
2021/11/24 10:09:25;;;;;;;14.63;13.93;;;19.40;83.50;;;;;;5001187;28;20540;-49
2021/11/24 10:11:52;;;;;;;14.53;13.80;;;19.50;83.30;;;;;;5004002;28;20442;-49
2021/11/24 10:14:19;;;;;;;15.83;15.10;;;19.50;83.10;;;;;;5005195;28;20457;-49
2021/11/24 10:16:46;;;;;;;14.60;14.00;;;19.60;82.60;;;;;;5004833;28;20465;-53
2021/11/24 10:19:14;;;;;;;14.80;14.30;;;19.60;82.20;;;;;;5005023;28;20528;-51
2021/11/24 10:21:55;;;;;;;14.77;14.17;;;19.60;82.00;;;;;;5004862;28;20457;-49
2021/11/24 10:24:31;;;;;;;15.50;14.80;;;19.70;81.80;;;;;;5004892;28;20774;-49
2021/11/24 10:27:00;;;;;;;15.50;14.80;;;19.70;81.70;;;;;;5004285;28;20540;-50
2021/11/24 10:29:27;;;;;;;13.80;13.10;;;19.80;82.60;;;;;;5004286;28;20493;-48
2021/11/24 10:31:55;;;;;;;14.83;14.03;;;20.50;80.80;;;;;;5003505;28;20464;-53
2021/11/24 10:34:24;;;;;;;15.33;14.73;;;21.40;76.40;;;;;;5003300;28;20456;-49
2021/11/24 10:37:04;;;;;;;16.47;15.77;;;21.80;74.30;;;;;;5003178;28;20450;-48
2021/11/24 10:39:35;;;;;;;14.57;14.07;;;22.40;72.10;;;;;;5002763;28;20477;-47
2021/11/24 10:42:12;;;;;;;15.97;15.33;;;23.10;68.80;;;;;;5003063;28;20454;-51
2021/11/24 10:44:40;;;;;;;15.90;15.20;;;23.60;65.40;;;;;;5002993;28;20486;-50
2021/11/24 10:47:08;;;;;;;15.63;15.03;;;23.70;63.60;;;;;;5003149;28;20472;-58
2021/11/24 10:49:42;;;;;;;16.00;15.23;;;23.80;61.30;;;;;;5003631;28;20501;-51
2021/11/24 10:52:14;;;;;;;14.30;13.70;;;23.90;60.50;;;;;;5002456;28;20878;-53
2021/11/24 10:54:43;;;;;;;15.50;14.80;;;24.00;60.00;;;;;;5002983;28;20452;-53
2021/11/24 10:57:12;;;;;;;15.30;14.67;;;23.90;59.50;;;;;;5002963;28;20453;-51
2021/11/24 10:59:41;;;;;;;14.73;14.13;;;24.00;59.90;;;;;;5003512;28;20999;-52
2021/11/24 11:02:23;;;;;;;15.33;14.73;;;24.40;59.80;;;;;;5002630;28;20448;-54
2021/11/24 11:05:03;;;;;;;16.23;15.53;;;24.90;58.60;;;;;;5002823;28;20450;-53
2021/11/24 11:07:35;;;;;;;15.17;14.43;;;25.00;57.90;;;;;;5002777;28;20450;-51
2021/11/24 11:10:06;;;;;;;16.27;15.57;;;24.90;56.60;;;;;;5002969;28;20476;-61
2021/11/24 11:12:34;;;;;;;16.43;15.73;;;24.90;56.70;;;;;;5002343;28;20446;-50
2021/11/24 11:15:33;;;;;;;15.93;15.13;;;24.90;55.80;;;;;;5002282;28;20846;-53
2021/11/24 11:18:02;;;;;;;15.97;15.37;;;24.90;56.00;;;;;;4969183;28;20470;-54
2021/11/24 11:20:32;;;;;;;15.30;14.60;;;24.90;55.30;;;;;;5002509;28;20533;-50
2021/11/24 11:23:14;;;;;;;16.50;15.80;;;24.90;55.30;;;;;;5000860;28;20462;-50
2021/11/24 11:25:45;;;;;;;15.53;14.93;;;25.40;55.20;;;;;;5003171;28;20449;-50
2021/11/24 11:28:13;;;;;;;15.80;15.20;;;25.70;54.40;;;;;;5002161;28;21253;-54
2021/11/24 11:30:44;;;;;;;16.80;15.90;;;25.60;53.90;;;;;;5002602;28;20461;-51
2021/11/24 11:33:13;;;;;;;16.37;15.43;;;25.60;53.80;;;;;;5002111;28;20457;-53
2021/11/24 11:35:41;;;;;;;15.57;14.87;;;25.60;53.70;;;;;;5002485;28;20462;-53
2021/11/24 11:38:08;;;;;;;15.23;14.73;;;25.50;53.50;;;;;;5003259;28;20469;-51
2021/11/24 11:40:37;;;;;;;16.77;15.97;;;25.50;53.60;;;;;;5002891;28;20442;-56
2021/11/24 11:43:07;;;;;;;14.50;14.00;;;25.40;53.60;;;;;;5002389;28;20461;-53
2021/11/24 11:45:35;;;;;;;15.60;15.00;;;25.50;53.80;;;;;;5002397;28;20454;-52
2021/11/24 11:48:05;;;;;;;14.90;14.33;;;25.90;53.30;;;;;;5001982;28;20513;-53
2021/11/24 11:50:56;;;;;;;14.90;14.40;;;26.20;52.30;;;;;;5002514;28;20895;-52
2021/11/24 11:53:26;;;;;;;15.10;14.60;;;26.10;51.90;;;;;;5002637;28;20454;-49
2021/11/24 11:56:20;;;;;;;15.60;14.90;;;26.10;51.80;;;;;;5002874;28;20814;-51
2021/11/24 11:59:04;;;;;;;15.37;14.70;;;26.10;51.60;;;;;;5002147;28;20520;-51
2021/11/24 12:01:34;;;;;;;14.97;14.47;;;26.00;51.70;;;;;;4999247;28;20457;-51
2021/11/24 12:04:10;;;;;;;15.40;14.80;;;26.20;51.70;;;;;;5001778;28;20473;-53
2021/11/24 12:06:41;;;;;;;14.37;13.87;;;26.50;51.00;;;;;;5001896;28;20457;-53
2021/11/24 12:09:23;;;;;;;14.87;14.17;;;26.60;50.50;;;;;;5001930;28;20498;-49
2021/11/24 12:12:19;;;;;;;14.43;13.93;;;26.50;50.30;;;;;;5001750;28;20887;-48
2021/11/24 12:14:56;;;;;;;15.90;15.30;;;26.60;50.20;;;;;;5001347;28;20457;-54
2021/11/24 12:17:47;;;;;;;14.93;14.33;;;26.50;50.00;;;;;;5001362;28;20452;-53
2021/11/24 12:20:53;;;;;;;15.70;15.20;;;26.50;50.10;;;;;;5001339;28;20537;-51
2021/11/24 12:23:25;;;;;;;16.10;15.30;;;26.40;50.10;;;;;;5001035;28;20448;-50
2021/11/24 12:25:57;;;;;;;14.93;14.43;;;26.30;50.20;;;;;;5001304;28;20477;-49
2021/11/24 12:28:26;;;;;;;16.00;15.47;;;26.20;50.30;;;;;;5001142;28;20496;-49
2021/11/24 12:31:03;;;;;;;15.67;15.07;;;26.30;50.40;;;;;;5001184;28;21046;-51
2021/11/24 12:33:34;;;;;;;15.70;15.10;;;26.80;50.00;;;;;;5000250;28;20459;-48
2021/11/24 12:36:04;;;;;;;15.47;14.90;;;27.00;49.20;;;;;;5001062;28;20632;-52